Weather at Fuentemilanos Airport

Public forecast

Using degrees Celsius for public forecast. Weather courtesy of forecast.io.

Closest aviation weather report (METAR) to Fuentemilanos Airport

Closest report is Adolfo Suárez Madrid–Barajas Airport, 39.6 nm (73.4 km) SE. Retrieved 2021/10/25 07:30 UTC (0 seconds ago):

LEMD 250730Z 21002KT CAVOK 05/02 Q1023 NOSIG

Closest aviation forecast (TAF) to Fuentemilanos Airport

Closest forecast is Base Aérea de Colmenar Viejo, 24.4 nm (45.2 km) ESE. Retrieved 2021/10/25 06:27 UTC (56 minutes ago):

TAF LECV 250500Z 2506/2606 VRB05KT CAVOK TX19/2515Z TN09/2507Z TEMPO 2522/2524 03010KT